createdAt,value
2022-10-25T00:01:48.329Z,100623.56
2022-10-25T00:04:15.783Z,100622.09
2022-10-25T00:06:43.187Z,100623.13
2022-10-25T00:09:10.743Z,100618.03
2022-10-25T00:11:37.578Z,100624.97
2022-10-25T00:14:06.332Z,100627.63
2022-10-25T00:16:36.995Z,100626.63
2022-10-25T00:19:05.370Z,100626.41
2022-10-25T00:21:32.709Z,100625.78
2022-10-25T00:23:59.657Z,100624.75
2022-10-25T00:26:26.445Z,100628.22
2022-10-25T00:28:55.294Z,100628.06
2022-10-25T00:31:23.309Z,100629.31
2022-10-25T00:33:50.257Z,100630.69
2022-10-25T00:36:22.736Z,100635.34
2022-10-25T00:38:49.826Z,100640.88
2022-10-25T00:41:19.946Z,100640.41
2022-10-25T00:43:55.623Z,100636.97
2022-10-25T00:46:27.100Z,100637.97
2022-10-25T00:49:23.172Z,100632.84
2022-10-25T00:51:56.230Z,100632.84
2022-10-25T00:54:26.872Z,100640.41
2022-10-25T00:56:55.013Z,100646.75
2022-10-25T00:59:27.187Z,100644.09
2022-10-25T01:01:55.965Z,100642.78
2022-10-25T01:04:26.675Z,100640.72
2022-10-25T01:06:54.278Z,100635.41
2022-10-25T01:09:25.126Z,100642.09
2022-10-25T01:11:52.045Z,100636.19
2022-10-25T01:14:19.589Z,100635.97
2022-10-25T01:16:55.297Z,100641.91
2022-10-25T01:19:25.176Z,100638.81
2022-10-25T01:22:12.313Z,100636.97
2022-10-25T01:24:48.290Z,100638.63
2022-10-25T01:27:54.002Z,100638.63
2022-10-25T01:30:23.885Z,100642.28
2022-10-25T01:33:08.988Z,100648.03
2022-10-25T01:35:46.981Z,100649.47
2022-10-25T01:38:56.415Z,100644.19
2022-10-25T01:42:00.527Z,100643.91
2022-10-25T01:45:04.963Z,100654.53
2022-10-25T01:48:00.775Z,100645.13
2022-10-25T01:50:34.304Z,100656.56
2022-10-25T01:53:01.030Z,100663.47
2022-10-25T01:55:35.225Z,100660.81
2022-10-25T01:58:23.449Z,100658.16
2022-10-25T02:01:11.759Z,100659.81
2022-10-25T02:04:23.945Z,100652.69
2022-10-25T02:07:06.862Z,100658.00
2022-10-25T02:09:44.414Z,100654.72
2022-10-25T02:12:19.197Z,100655.25
2022-10-25T02:15:08.812Z,100649.34
2022-10-25T02:17:42.717Z,100655.09
2022-10-25T02:20:11.665Z,100656.09
2022-10-25T02:22:39.806Z,100651.44
2022-10-25T02:25:08.934Z,100657.56
2022-10-25T02:27:39.234Z,100658.81
2022-10-25T02:30:07.705Z,100650.03
2022-10-25T02:32:34.876Z,100656.16
2022-10-25T02:35:04.623Z,100655.16
2022-10-25T02:37:32.606Z,100653.69
2022-10-25T02:39:59.954Z,100649.22
2022-10-25T02:42:27.012Z,100649.03
2022-10-25T02:44:53.945Z,100658.00
2022-10-25T02:47:20.697Z,100651.50
2022-10-25T02:49:47.459Z,100654.16
2022-10-25T02:52:14.234Z,100658.44
2022-10-25T02:54:40.960Z,100657.81
2022-10-25T02:57:07.727Z,100654.53
2022-10-25T02:59:34.523Z,100654.72
2022-10-25T03:02:01.529Z,100656.56
2022-10-25T03:04:28.335Z,100653.34
2022-10-25T03:06:55.192Z,100647.84
2022-10-25T03:09:21.943Z,100652.97
2022-10-25T03:11:48.710Z,100653.78
2022-10-25T03:14:15.736Z,100652.13
2022-10-25T03:16:42.599Z,100650.47
2022-10-25T03:19:09.642Z,100660.72
2022-10-25T03:21:38.684Z,100654.59
2022-10-25T03:24:08.283Z,100667.84
2022-10-25T03:26:35.215Z,100657.00
2022-10-25T03:29:01.929Z,100659.19
2022-10-25T03:31:28.954Z,100654.09
2022-10-25T03:33:55.702Z,100660.03
2022-10-25T03:36:22.471Z,100667.16
2022-10-25T03:38:49.217Z,100669.81
2022-10-25T03:41:16.048Z,100666.50
2022-10-25T03:43:42.781Z,100676.47
2022-10-25T03:46:09.475Z,100672.19
2022-10-25T03:48:36.718Z,100674.56
2022-10-25T03:51:03.499Z,100684.97
2022-10-25T03:53:31.271Z,100675.00
2022-10-25T03:55:58.242Z,100679.09
2022-10-25T03:58:25.057Z,100673.38
2022-10-25T04:00:51.897Z,100673.91
2022-10-25T04:03:18.652Z,100684.53
2022-10-25T04:05:45.566Z,100674.56
2022-10-25T04:08:12.355Z,100681.75
2022-10-25T04:10:39.216Z,100679.75
2022-10-25T04:13:05.976Z,100685.69
2022-10-25T04:15:32.788Z,100683.22
2022-10-25T04:17:59.536Z,100688.09
2022-10-25T04:20:26.274Z,100682.31
2022-10-25T04:22:55.277Z,100693.56
2022-10-25T04:25:22.867Z,100686.44
2022-10-25T04:27:49.862Z,100684.41
2022-10-25T04:30:16.859Z,100696.22
2022-10-25T04:32:44.089Z,100693.94
2022-10-25T04:35:12.927Z,100686.53
2022-10-25T04:37:39.692Z,100695.28
2022-10-25T04:40:07.236Z,100689.16
2022-10-25T04:42:34.856Z,100693.66
2022-10-25T04:45:01.883Z,100692.47
2022-10-25T04:47:33.030Z,100698.59
2022-10-25T04:49:59.805Z,100702.69
2022-10-25T04:52:26.599Z,100700.03
2022-10-25T04:54:53.303Z,100701.69
2022-10-25T04:57:20.008Z,100696.38
2022-10-25T04:59:46.811Z,100703.34
2022-10-25T05:02:14.696Z,100706.81
2022-10-25T05:04:42.446Z,100714.94
2022-10-25T05:07:09.236Z,100717.78
2022-10-25T05:09:36.102Z,100707.38
2022-10-25T05:12:02.926Z,100707.19
2022-10-25T05:14:29.719Z,100717.41
2022-10-25T05:16:56.639Z,100713.75
2022-10-25T05:19:23.387Z,100720.06
2022-10-25T05:21:50.421Z,100714.09
2022-10-25T05:24:17.214Z,100711.66
2022-10-25T05:26:44.220Z,100719.41
2022-10-25T05:29:12.929Z,100722.31
2022-10-25T05:31:41.232Z,100725.63
2022-10-25T05:34:10.410Z,100728.94
2022-10-25T05:36:37.591Z,100729.94
2022-10-25T05:39:04.390Z,100730.09
2022-10-25T05:41:34.589Z,100734.84
2022-10-25T05:44:04.553Z,100743.25
2022-10-25T05:46:31.838Z,100740.25
2022-10-25T05:48:59.746Z,100734.78
2022-10-25T05:51:37.185Z,100739.25
2022-10-25T05:54:10.633Z,100747.19
2022-10-25T05:56:38.643Z,100742.50
2022-10-25T05:59:11.191Z,100751.72
2022-10-25T06:01:40.916Z,100748.16
2022-10-25T06:04:08.678Z,100750.00
2022-10-25T06:06:36.397Z,100747.16
2022-10-25T06:09:04.082Z,100750.66
2022-10-25T06:11:31.846Z,100758.03
2022-10-25T06:13:59.039Z,100757.84
2022-10-25T06:16:25.794Z,100771.56
2022-10-25T06:18:54.281Z,100763.41
2022-10-25T06:21:23.995Z,100762.41
2022-10-25T06:23:51.775Z,100769.75
2022-10-25T06:26:23.977Z,100777.88
2022-10-25T06:28:56.626Z,100771.91
2022-10-25T06:31:24.105Z,100773.94
2022-10-25T06:33:51.159Z,100771.31
2022-10-25T06:36:20.965Z,100766.16
2022-10-25T06:38:48.600Z,100765.53
2022-10-25T06:41:24.119Z,100769.56
2022-10-25T06:43:51.768Z,100774.25
2022-10-25T06:46:28.532Z,100767.13
2022-10-25T06:48:56.603Z,100770.75
2022-10-25T06:51:25.169Z,100771.75
2022-10-25T06:53:56.024Z,100771.03
2022-10-25T06:56:23.687Z,100771.47
2022-10-25T06:58:50.699Z,100780.06
2022-10-25T07:01:19.673Z,100778.03
2022-10-25T07:03:46.676Z,100785.38
2022-10-25T07:06:16.174Z,100783.91
2022-10-25T07:08:44.947Z,100790.41
2022-10-25T07:11:16.996Z,100790.41
2022-10-25T07:13:44.402Z,100793.06
2022-10-25T07:16:13.500Z,100790.59
2022-10-25T07:18:40.237Z,100798.53
2022-10-25T07:21:23.561Z,100803.13
2022-10-25T07:23:51.314Z,100806.13
2022-10-25T07:26:44.354Z,100802.03
2022-10-25T07:29:11.111Z,100802.84
2022-10-25T07:31:41.337Z,100810.59
2022-10-25T07:34:08.141Z,100812.25
2022-10-25T07:36:35.055Z,100814.91
2022-10-25T07:39:01.882Z,100823.69
2022-10-25T07:41:29.182Z,100817.19
2022-10-25T07:43:56.096Z,100822.50
2022-10-25T07:46:23.289Z,100819.38
2022-10-25T07:48:52.567Z,100813.44
2022-10-25T07:51:20.604Z,100818.75
2022-10-25T07:53:47.941Z,100823.84
2022-10-25T07:56:20.488Z,100816.72
2022-10-25T07:58:51.494Z,100827.31
2022-10-25T08:01:23.594Z,100828.97
2022-10-25T08:03:52.254Z,100827.81
2022-10-25T08:06:20.360Z,100818.81
2022-10-25T08:08:47.558Z,100825.97
2022-10-25T08:11:14.856Z,100831.06
2022-10-25T08:13:42.010Z,100825.59
2022-10-25T08:16:09.130Z,100833.81
2022-10-25T08:18:35.957Z,100835.28
2022-10-25T08:21:04.284Z,100833.44
2022-10-25T08:23:32.827Z,100834.66
2022-10-25T08:26:00.779Z,100842.06
2022-10-25T08:28:28.256Z,100835.22
2022-10-25T08:30:55.912Z,100840.34
2022-10-25T08:33:26.561Z,100838.13
2022-10-25T08:35:53.315Z,100835.31
2022-10-25T08:38:20.221Z,100837.75
2022-10-25T08:40:59.050Z,100841.50
2022-10-25T08:43:58.280Z,100837.28
2022-10-25T08:46:33.696Z,100833.81
2022-10-25T08:49:33.578Z,100835.63
2022-10-25T08:52:02.766Z,100838.94
2022-10-25T08:54:43.126Z,100835.72
2022-10-25T08:57:27.757Z,100842.13
2022-10-25T09:00:01.856Z,100841.72
2022-10-25T09:02:42.263Z,100842.56
2022-10-25T09:05:36.949Z,100842.81
2022-10-25T09:08:23.908Z,100855.34
2022-10-25T09:11:12.886Z,100844.34
2022-10-25T09:13:45.733Z,100856.44
2022-10-25T09:16:16.764Z,100853.41
2022-10-25T09:18:55.241Z,100853.03
2022-10-25T09:21:25.398Z,100854.72
2022-10-25T09:24:11.223Z,100860.94
2022-10-25T09:26:37.944Z,100857.53
2022-10-25T09:29:27.999Z,100864.72
2022-10-25T09:31:59.107Z,100858.41
2022-10-25T09:34:31.433Z,100864.19
2022-10-25T09:37:07.207Z,100862.41
2022-10-25T09:39:40.216Z,100868.97
2022-10-25T09:42:16.935Z,100870.25
2022-10-25T09:44:48.619Z,100870.88
2022-10-25T09:47:26.481Z,100864.41
2022-10-25T09:50:04.130Z,100867.91
2022-10-25T09:52:30.873Z,100870.63
2022-10-25T09:55:06.710Z,100864.34
2022-10-25T09:57:33.996Z,100862.75
2022-10-25T10:00:00.787Z,100858.09
2022-10-25T10:02:28.318Z,100862.81
2022-10-25T10:04:55.295Z,100866.31
2022-10-25T10:07:36.329Z,100858.75
2022-10-25T10:10:08.022Z,100860.22
2022-10-25T10:13:16.774Z,100858.16
2022-10-25T10:15:59.904Z,100860.63
2022-10-25T10:18:34.846Z,100854.13
2022-10-25T10:21:16.282Z,100860.69
2022-10-25T10:24:04.949Z,100854.78
2022-10-25T10:26:45.127Z,100855.44
2022-10-25T10:29:16.768Z,100852.38
2022-10-25T10:31:48.546Z,100849.72
2022-10-25T10:34:41.443Z,100847.69
2022-10-25T10:37:15.878Z,100848.09
2022-10-25T10:39:59.446Z,100848.72
2022-10-25T10:42:32.542Z,100846.88
2022-10-25T10:45:08.386Z,100856.50
2022-10-25T10:47:42.954Z,100856.31
2022-10-25T10:50:25.799Z,100853.25
2022-10-25T10:53:05.266Z,100851.06
2022-10-25T10:55:36.464Z,100847.75
2022-10-25T10:58:04.236Z,100853.72
2022-10-25T11:00:32.878Z,100853.16
2022-10-25T11:03:00.165Z,100842.78
2022-10-25T11:05:35.368Z,100858.75
2022-10-25T11:08:22.398Z,100859.72
2022-10-25T11:10:49.274Z,100855.06
2022-10-25T11:13:23.426Z,100850.56
2022-10-25T11:16:12.480Z,100844.25
2022-10-25T11:18:57.952Z,100847.31
2022-10-25T11:21:47.641Z,100855.31
2022-10-25T11:24:48.147Z,100844.25
2022-10-25T11:27:20.636Z,100845.25
2022-10-25T11:29:59.642Z,100845.25
2022-10-25T11:33:04.310Z,100839.75
2022-10-25T11:35:40.041Z,100843.88
2022-10-25T11:38:35.845Z,100844.91
2022-10-25T11:41:28.247Z,100841.03
2022-10-25T11:44:00.790Z,100846.16
2022-10-25T11:46:51.865Z,100852.31
2022-10-25T11:49:43.310Z,100844.31
2022-10-25T11:55:21.948Z,100846.97
2022-10-25T11:57:51.657Z,100848.81
2022-10-25T12:00:24.422Z,100849.19
2022-10-25T12:02:57.321Z,100841.22
2022-10-25T12:05:28.112Z,100837.13
2022-10-25T12:08:16.427Z,100835.28
2022-10-25T12:10:50.159Z,100832.63
2022-10-25T12:13:31.594Z,100832.81
2022-10-25T12:15:59.471Z,100831.81
2022-10-25T12:18:38.279Z,100826.06
2022-10-25T12:21:07.221Z,100827.91
2022-10-25T12:23:47.445Z,100837.53
2022-10-25T12:26:28.002Z,100835.06
2022-10-25T12:28:57.185Z,100829.97
2022-10-25T12:31:27.534Z,100829.75
2022-10-25T12:34:01.914Z,100820.13
2022-10-25T12:36:36.589Z,100819.31
2022-10-25T12:39:12.682Z,100805.38
2022-10-25T12:41:43.155Z,100813.53
2022-10-25T12:44:28.500Z,100813.16
2022-10-25T12:47:13.688Z,100808.25
2022-10-25T12:49:50.263Z,100805.22
2022-10-25T12:52:38.706Z,100792.13
2022-10-25T12:55:42.668Z,100787.38
2022-10-25T12:58:30.690Z,100778.56
2022-10-25T13:01:33.550Z,100787.19
2022-10-25T13:04:45.090Z,100791.28
2022-10-25T13:07:13.882Z,100787.22
2022-10-25T13:09:41.732Z,100780.66
2022-10-25T13:12:30.784Z,100783.13
2022-10-25T13:14:59.951Z,100769.59
2022-10-25T13:17:26.694Z,100771.03
2022-10-25T13:19:56.028Z,100765.28
2022-10-25T13:22:40.424Z,100764.09
2022-10-25T13:25:12.962Z,100770.22
2022-10-25T13:28:01.207Z,100764.72
2022-10-25T13:30:32.121Z,100764.50
2022-10-25T13:33:38.568Z,100763.66
2022-10-25T13:36:06.123Z,100770.63
2022-10-25T13:38:39.387Z,100769.41
2022-10-25T13:41:06.730Z,100773.09
2022-10-25T13:43:34.210Z,100776.38
2022-10-25T13:46:01.199Z,100782.72
2022-10-25T13:48:31.914Z,100777.22
2022-10-25T13:51:01.628Z,100771.25
2022-10-25T13:53:42.601Z,100772.69
2022-10-25T13:56:16.193Z,100769.59
2022-10-25T13:58:55.021Z,100757.09
2022-10-25T14:01:23.172Z,100753.41
2022-10-25T14:04:02.216Z,100747.06
2022-10-25T14:06:35.083Z,100745.22
2022-10-25T14:09:40.193Z,100740.50
2022-10-25T14:12:20.209Z,100735.81
2022-10-25T14:15:28.701Z,100737.44
2022-10-25T14:17:58.017Z,100740.31
2022-10-25T14:20:32.681Z,100733.97
2022-10-25T14:23:03.058Z,100732.31
2022-10-25T14:25:51.175Z,100732.94
2022-10-25T14:28:23.562Z,100727.19
2022-10-25T14:30:53.703Z,100720.84
2022-10-25T14:33:30.068Z,100723.91
2022-10-25T14:36:19.895Z,100722.06
2022-10-25T14:39:00.229Z,100725.75
2022-10-25T14:41:29.723Z,100724.97
2022-10-25T14:43:57.325Z,100713.25
2022-10-25T14:46:26.403Z,100711.22
2022-10-25T14:49:01.272Z,100713.88
2022-10-25T14:51:33.274Z,100705.28
2022-10-25T14:54:02.866Z,100708.75
2022-10-25T14:56:35.191Z,100705.69
2022-10-25T14:59:03.911Z,100709.38
2022-10-25T15:01:30.767Z,100716.53
2022-10-25T15:04:00.315Z,100712.22
2022-10-25T15:06:31.561Z,100708.97
2022-10-25T15:09:30.068Z,100708.34
2022-10-25T15:12:20.102Z,100715.94
2022-10-25T15:14:48.510Z,100705.69
2022-10-25T15:17:17.186Z,100711.44
2022-10-25T15:20:00.806Z,100711.44
2022-10-25T15:22:33.000Z,100711.84
2022-10-25T15:24:59.952Z,100701.59
2022-10-25T15:27:32.840Z,100700.56
2022-10-25T15:29:59.620Z,100696.25
2022-10-25T15:32:27.803Z,100691.38
2022-10-25T15:35:00.728Z,100680.72
2022-10-25T15:37:29.219Z,100683.16
2022-10-25T15:39:56.895Z,100680.47
2022-10-25T15:42:26.041Z,100684.16
2022-10-25T15:44:53.130Z,100687.66
2022-10-25T15:47:32.413Z,100686.22
2022-10-25T15:50:00.023Z,100685.81
2022-10-25T15:52:27.270Z,100679.69
2022-10-25T15:54:54.226Z,100677.84
2022-10-25T15:57:21.375Z,100684.78
2022-10-25T15:59:48.142Z,100684.19
2022-10-25T16:02:21.322Z,100682.34
2022-10-25T16:04:48.663Z,100681.31
2022-10-25T16:07:16.421Z,100676.00
2022-10-25T16:09:43.884Z,100667.19
2022-10-25T16:12:20.561Z,100662.69
2022-10-25T16:14:49.715Z,100665.72
2022-10-25T16:17:16.484Z,100667.56
2022-10-25T16:19:43.213Z,100677.19
2022-10-25T16:22:09.992Z,100673.94
2022-10-25T16:24:36.770Z,100669.63
2022-10-25T16:27:03.951Z,100672.69
2022-10-25T16:29:30.996Z,100668.19
2022-10-25T16:31:57.769Z,100662.47
2022-10-25T16:34:24.638Z,100662.06
2022-10-25T16:36:52.713Z,100655.50
2022-10-25T16:39:19.829Z,100659.78
2022-10-25T16:41:47.744Z,100655.91
2022-10-25T16:44:17.559Z,100660.63
2022-10-25T16:46:45.340Z,100657.97
2022-10-25T16:49:12.324Z,100656.09
2022-10-25T16:51:40.061Z,100658.34
2022-10-25T16:54:07.446Z,100661.38
2022-10-25T16:56:34.340Z,100648.47
2022-10-25T16:59:01.329Z,100656.03
2022-10-25T17:01:33.843Z,100653.59
2022-10-25T17:04:01.878Z,100650.72
2022-10-25T17:06:40.913Z,100644.97
2022-10-25T17:09:08.718Z,100640.91
2022-10-25T17:11:36.466Z,100649.25
2022-10-25T17:14:03.997Z,100646.00
2022-10-25T17:16:30.933Z,100642.72
2022-10-25T17:18:58.320Z,100640.88
2022-10-25T17:21:25.049Z,100625.09
2022-10-25T17:23:51.829Z,100625.94
2022-10-25T17:26:18.705Z,100617.31
2022-10-25T17:28:45.421Z,100622.03
2022-10-25T17:31:14.918Z,100617.53
2022-10-25T17:33:42.468Z,100614.25
2022-10-25T17:36:14.154Z,100621.63
2022-10-25T17:38:41.808Z,100624.69
2022-10-25T17:41:09.191Z,100623.25
2022-10-25T17:43:37.471Z,100617.31
2022-10-25T17:46:06.457Z,100615.06
2022-10-25T17:48:33.623Z,100617.09
2022-10-25T17:51:02.430Z,100614.44
2022-10-25T17:53:29.237Z,100612.78
2022-10-25T17:55:56.368Z,100606.63
2022-10-25T17:58:23.254Z,100605.03
2022-10-25T18:00:50.227Z,100605.59
2022-10-25T18:03:17.106Z,100605.81
2022-10-25T18:05:44.053Z,100598.84
2022-10-25T18:08:30.028Z,100588.41
2022-10-25T18:10:57.008Z,100588.63
2022-10-25T18:13:31.298Z,100601.09
2022-10-25T18:16:01.315Z,100598.44
2022-10-25T18:18:28.158Z,100596.81
2022-10-25T18:20:54.904Z,100593.31
2022-10-25T18:23:22.414Z,100593.31
2022-10-25T18:25:52.917Z,100590.66
2022-10-25T18:28:20.087Z,100589.84
2022-10-25T18:30:46.913Z,100590.84
2022-10-25T18:33:15.301Z,100586.78
2022-10-25T18:35:42.411Z,100588.78
2022-10-25T18:38:09.129Z,100585.53
2022-10-25T18:40:36.197Z,100586.34
2022-10-25T18:43:02.931Z,100587.16
2022-10-25T18:45:30.123Z,100586.34
2022-10-25T18:47:59.136Z,100575.69
2022-10-25T18:50:26.670Z,100575.91
2022-10-25T18:52:53.463Z,100568.13
2022-10-25T18:55:26.866Z,100574.91
2022-10-25T18:57:55.063Z,100565.28
2022-10-25T19:00:27.882Z,100562.63
2022-10-25T19:02:55.415Z,100563.47
2022-10-25T19:05:23.795Z,100558.53
2022-10-25T19:07:51.102Z,100557.91
2022-10-25T19:10:18.284Z,100561.59
2022-10-25T19:12:45.312Z,100555.44
2022-10-25T19:15:13.491Z,100559.53
2022-10-25T19:17:40.411Z,100546.06
2022-10-25T19:20:07.785Z,100557.50
2022-10-25T19:22:35.503Z,100554.03
2022-10-25T19:25:02.292Z,100554.22
2022-10-25T19:27:29.850Z,100549.72
2022-10-25T19:29:57.933Z,100546.06
2022-10-25T19:32:24.773Z,100541.16
2022-10-25T19:37:40.130Z,100527.44
2022-10-25T19:40:08.505Z,100531.94
2022-10-25T19:42:35.379Z,100520.72
2022-10-25T19:45:03.531Z,100522.56
2022-10-25T19:47:30.398Z,100517.44
2022-10-25T19:50:05.661Z,100517.00
2022-10-25T19:52:36.298Z,100514.56
2022-10-25T19:57:50.921Z,100509.84
2022-10-25T20:00:17.893Z,100510.88
2022-10-25T20:02:44.613Z,100501.50
2022-10-25T20:07:58.220Z,100499.47
2022-10-25T20:10:25.593Z,100495.97
2022-10-25T20:12:52.339Z,100490.84
2022-10-25T20:15:19.194Z,100491.91
2022-10-25T20:17:46.327Z,100481.47
2022-10-25T20:20:13.462Z,100473.69
2022-10-25T20:22:40.233Z,100469.19
2022-10-25T20:25:07.728Z,100471.03
2022-10-25T20:27:34.726Z,100466.53
2022-10-25T20:30:01.488Z,100463.88
2022-10-25T20:32:28.310Z,100462.22
2022-10-25T20:34:55.115Z,100457.16
2022-10-25T20:37:21.926Z,100455.31
2022-10-25T20:39:48.797Z,100455.31
2022-10-25T20:42:17.887Z,100452.66
2022-10-25T20:44:44.752Z,100450.78
2022-10-25T20:47:11.536Z,100436.47
2022-10-25T20:49:38.281Z,100433.63
2022-10-25T20:52:05.139Z,100440.78
2022-10-25T20:54:31.952Z,100426.88
2022-10-25T20:56:58.686Z,100432.19
2022-10-25T20:59:25.528Z,100438.53
2022-10-25T21:01:52.719Z,100431.16
2022-10-25T21:04:30.410Z,100436.28
2022-10-25T21:07:03.898Z,100436.09
2022-10-25T21:09:30.786Z,100441.41
2022-10-25T21:11:57.567Z,100440.97
2022-10-25T21:14:24.422Z,100437.69
2022-10-25T21:16:51.150Z,100432.00
2022-10-25T21:19:17.925Z,100439.97
2022-10-25T21:21:44.642Z,100446.09
2022-10-25T21:24:11.505Z,100438.13
2022-10-25T21:26:38.484Z,100443.44
2022-10-25T21:29:07.318Z,100446.69
2022-10-25T21:31:34.191Z,100433.84
2022-10-25T21:34:01.214Z,100423.22
2022-10-25T21:36:28.352Z,100430.97
2022-10-25T21:38:55.542Z,100425.44
2022-10-25T21:41:27.338Z,100420.13
2022-10-25T21:43:55.467Z,100421.97
2022-10-25T21:46:23.561Z,100417.66
2022-10-25T21:48:50.880Z,100402.97
2022-10-25T21:51:21.780Z,100408.28
2022-10-25T21:53:48.702Z,100410.13
2022-10-25T21:56:20.462Z,100408.09
2022-10-25T21:59:11.333Z,100404.59
2022-10-25T22:01:38.293Z,100409.91
2022-10-25T22:04:05.154Z,100412.56
2022-10-25T22:06:31.914Z,100404.59
2022-10-25T22:08:58.629Z,100394.78
2022-10-25T22:11:31.753Z,100391.91
2022-10-25T22:14:01.255Z,100396.19
2022-10-25T22:16:29.325Z,100392.34
2022-10-25T22:19:08.305Z,100385.97
2022-10-25T22:21:38.354Z,100379.63
2022-10-25T22:24:08.667Z,100378.41
2022-10-25T22:26:36.938Z,100380.84
2022-10-25T22:29:04.325Z,100368.59
2022-10-25T22:31:31.785Z,100359.81
2022-10-25T22:34:01.332Z,100367.97
2022-10-25T22:36:37.418Z,100363.28
2022-10-25T22:39:05.434Z,100368.19
2022-10-25T22:41:32.306Z,100358.75
2022-10-25T22:43:59.888Z,100359.56
2022-10-25T22:46:32.514Z,100355.28
2022-10-25T22:49:04.054Z,100358.56
2022-10-25T22:51:31.125Z,100351.78
2022-10-25T22:53:58.158Z,100356.28
2022-10-25T22:56:27.622Z,100351.22
2022-10-25T22:59:00.394Z,100356.53
2022-10-25T23:01:28.999Z,100346.47
2022-10-25T23:03:57.676Z,100351.41
2022-10-25T23:06:33.471Z,100349.75
2022-10-25T23:09:02.553Z,100343.63
2022-10-25T23:11:33.599Z,100338.09
2022-10-25T23:14:01.658Z,100338.09
2022-10-25T23:16:29.650Z,100335.25
2022-10-25T23:18:56.555Z,100331.56
2022-10-25T23:21:25.454Z,100343.00
2022-10-25T23:23:54.384Z,100327.88
2022-10-25T23:26:23.895Z,100326.84
2022-10-25T23:28:51.150Z,100332.16
2022-10-25T23:31:18.358Z,100330.31
2022-10-25T23:33:45.838Z,100326.66
2022-10-25T23:36:15.862Z,100333.59
2022-10-25T23:38:46.210Z,100328.69
2022-10-25T23:41:13.197Z,100320.69
2022-10-25T23:43:40.580Z,100325.81
2022-10-25T23:46:08.050Z,100344.22
2022-10-25T23:48:35.007Z,100342.78
2022-10-25T23:51:04.427Z,100335.63
2022-10-25T23:53:31.737Z,100342.38
2022-10-25T23:55:59.039Z,100338.69
2022-10-25T23:58:25.818Z,100337.25
